Time;durP1;ratioP1;P1;durP2;ratioP2;P2;SDS_P1;SDS_P2;PMS_P1;PMS_P2;Temp;Humidity;BMP_temperature;BMP_pressure;BME280_temperature;BME280_humidity;BME280_pressure;Samples;Min_cycle;Max_cycle;Signal;HPM_P1;HPM_P2
2022/09/20 00:01:19;;;;;;;7.45;1.25;;;9.80;99.90;;;;;;5114321;28;20043;-62
2022/09/20 00:03:46;;;;;;;9.82;1.30;;;9.60;99.90;;;;;;5114761;28;20078;-62
2022/09/20 00:06:15;;;;;;;8.80;1.40;;;9.70;99.90;;;;;;5114605;28;20036;-62
2022/09/20 00:08:41;;;;;;;7.88;1.42;;;9.70;99.90;;;;;;5114276;28;20475;-62
2022/09/20 00:11:14;;;;;;;7.50;1.98;;;9.60;99.90;;;;;;5114227;28;20044;-62
2022/09/20 00:13:42;;;;;;;6.60;1.45;;;9.70;99.90;;;;;;5114390;28;20380;-62
2022/09/20 00:16:11;;;;;;;11.52;1.42;;;9.60;99.90;;;;;;5114202;28;20066;-62
2022/09/20 00:18:37;;;;;;;10.48;1.33;;;9.60;99.90;;;;;;5114379;28;20043;-61
2022/09/20 00:21:03;;;;;;;7.05;1.45;;;9.60;99.90;;;;;;5114344;28;20036;-61
2022/09/20 00:23:30;;;;;;;9.48;1.45;;;9.60;99.90;;;;;;5114141;28;20471;-62
2022/09/20 00:26:04;;;;;;;8.60;1.50;;;9.60;99.90;;;;;;5114135;28;20047;-62
2022/09/20 00:28:33;;;;;;;7.10;1.85;;;9.50;99.90;;;;;;5114074;28;20036;-61
2022/09/20 00:30:59;;;;;;;5.75;1.52;;;9.50;99.90;;;;;;5114227;28;20145;-62
2022/09/20 00:35:06;;;;;;;8.60;1.60;;;9.50;99.90;;;;;;5113553;28;20036;-62
2022/09/20 00:36:11;;;;;;;9.10;2.55;;;9.40;99.90;;;;;;5113763;28;20047;-62
2022/09/20 00:38:36;;;;;;;5.35;1.25;;;9.40;99.90;;;;;;5101794;28;20047;-62
2022/09/20 00:41:02;;;;;;;10.73;1.52;;;9.50;99.90;;;;;;5104274;28;20123;-61
2022/09/20 00:43:42;;;;;;;7.30;1.48;;;9.40;99.90;;;;;;5113749;28;20050;-62
2022/09/20 00:46:32;;;;;;;6.75;1.42;;;9.40;99.90;;;;;;5113856;28;20066;-62
2022/09/20 00:49:05;;;;;;;9.23;2.30;;;9.30;99.90;;;;;;5113368;28;20054;-62
2022/09/20 00:51:35;;;;;;;8.20;1.80;;;9.30;99.90;;;;;;5113431;28;20086;-62
2022/09/20 00:54:03;;;;;;;7.28;1.98;;;9.10;99.90;;;;;;5113601;28;20040;-62
2022/09/20 00:56:33;;;;;;;7.75;1.30;;;9.10;99.90;;;;;;5113438;28;20044;-62
2022/09/20 00:59:14;;;;;;;8.80;1.17;;;9.20;99.90;;;;;;5113396;28;20043;-62
2022/09/20 01:01:42;;;;;;;7.30;1.48;;;9.20;99.90;;;;;;5113545;28;20383;-61
2022/09/20 01:04:08;;;;;;;7.70;2.20;;;9.20;99.90;;;;;;5113366;28;20471;-62
2022/09/20 01:06:34;;;;;;;10.80;1.70;;;9.10;99.90;;;;;;5113427;28;20049;-64
2022/09/20 01:09:04;;;;;;;9.98;1.40;;;9.10;99.90;;;;;;5113331;28;20035;-62
2022/09/20 01:11:30;;;;;;;8.18;1.77;;;9.00;99.90;;;;;;5113442;28;20448;-62
2022/09/20 01:13:56;;;;;;;9.45;1.80;;;9.10;99.90;;;;;;5095064;28;20043;-62
2022/09/20 01:16:24;;;;;;;8.00;1.55;;;9.00;99.90;;;;;;5113464;28;20100;-62
2022/09/20 01:18:51;;;;;;;6.72;1.50;;;8.90;99.90;;;;;;5113264;28;20042;-61
2022/09/20 01:21:18;;;;;;;8.13;1.80;;;8.90;99.90;;;;;;5113288;28;20089;-62
2022/09/20 01:23:55;;;;;;;9.13;1.38;;;9.00;99.90;;;;;;5113096;28;20040;-61
2022/09/20 01:27:09;;;;;;;7.70;1.65;;;9.00;99.90;;;;;;5112833;28;20078;-62
2022/09/20 01:29:59;;;;;;;8.85;2.00;;;8.90;99.90;;;;;;5035634;28;20101;-62
2022/09/20 01:32:34;;;;;;;9.35;1.30;;;8.90;99.90;;;;;;5112846;28;20066;-62
2022/09/20 01:35:01;;;;;;;10.52;2.20;;;8.90;99.90;;;;;;5112697;28;20153;-62
2022/09/20 01:37:35;;;;;;;8.65;1.60;;;8.90;99.90;;;;;;5110239;28;20047;-62
2022/09/20 01:40:13;;;;;;;9.55;1.90;;;8.70;99.90;;;;;;5094337;28;20486;-62
2022/09/20 01:42:50;;;;;;;10.57;1.92;;;8.70;99.90;;;;;;5112780;28;20035;-62
2022/09/20 01:45:24;;;;;;;5.57;1.23;;;8.70;99.90;;;;;;5112079;28;20177;-62
2022/09/20 01:48:13;;;;;;;7.60;1.63;;;8.70;99.90;;;;;;5112512;28;20126;-61
2022/09/20 01:51:16;;;;;;;10.50;2.10;;;8.70;99.90;;;;;;5112803;28;20425;-63
2022/09/20 01:54:39;;;;;;;7.60;1.73;;;8.60;99.90;;;;;;5094848;28;20081;-62
2022/09/20 01:57:23;;;;;;;10.32;1.77;;;8.60;99.90;;;;;;5009833;28;20108;-62
2022/09/20 01:59:54;;;;;;;13.90;2.08;;;8.80;99.90;;;;;;5008875;28;20038;-62
2022/09/20 02:02:26;;;;;;;8.48;1.52;;;8.90;99.90;;;;;;5073389;28;20488;-62
2022/09/20 02:04:51;;;;;;;8.15;1.63;;;8.80;99.90;;;;;;5112603;28;20116;-62
2022/09/20 02:07:38;;;;;;;6.90;1.33;;;8.70;99.90;;;;;;5112238;28;20523;-62
2022/09/20 02:10:56;;;;;;;12.60;2.85;;;8.60;99.90;;;;;;5112293;28;20122;-63
2022/09/20 02:13:51;;;;;;;9.65;1.77;;;8.60;99.90;;;;;;5112548;28;20048;-62
2022/09/20 02:16:51;;;;;;;8.55;1.30;;;8.50;99.90;;;;;;5090177;28;20055;-62
2022/09/20 02:19:41;;;;;;;7.30;1.60;;;8.50;99.90;;;;;;5112263;28;20140;-62
2022/09/20 02:22:43;;;;;;;7.32;1.42;;;8.50;99.90;;;;;;5112181;28;20480;-62
2022/09/20 02:25:34;;;;;;;9.07;1.63;;;8.50;99.90;;;;;;5093969;28;20467;-62
2022/09/20 02:28:22;;;;;;;11.30;1.70;;;8.60;99.90;;;;;;5112086;28;20048;-62
2022/09/20 02:31:14;;;;;;;8.60;2.15;;;8.60;99.90;;;;;;5112304;28;20035;-62
2022/09/20 02:33:40;;;;;;;;;;;8.60;99.90;;;;;;5112426;28;20039;-62
2022/09/20 02:36:51;;;;;;;9.23;2.58;;;8.70;99.90;;;;;;5112449;28;20355;-62
2022/09/20 02:39:27;;;;;;;11.15;2.47;;;8.60;99.90;;;;;;5093809;28;20097;-62
2022/09/20 02:42:11;;;;;;;9.02;1.40;;;8.60;99.90;;;;;;5109300;28;20454;-62
2022/09/20 02:44:52;;;;;;;9.77;1.48;;;8.60;99.90;;;;;;5111937;28;20495;-63
2022/09/20 02:47:42;;;;;;;10.48;1.45;;;8.70;99.90;;;;;;5111937;28;20035;-61
2022/09/20 02:50:37;;;;;;;9.40;1.63;;;8.60;99.90;;;;;;5112223;28;20040;-61
2022/09/20 02:53:21;;;;;;;9.40;1.73;;;8.70;99.90;;;;;;5093734;28;20398;-62
2022/09/20 02:56:05;;;;;;;12.20;1.38;;;8.80;99.90;;;;;;5113708;28;20059;-61
2022/09/20 02:58:55;;;;;;;7.43;1.50;;;8.80;99.90;;;;;;5099239;28;20040;-62
2022/09/20 03:01:23;;;;;;;8.90;1.40;;;8.90;99.90;;;;;;5116037;28;20039;-62
2022/09/20 03:04:20;;;;;;;7.13;1.30;;;8.80;99.90;;;;;;5115548;28;20115;-62
2022/09/20 03:07:11;;;;;;;8.80;1.42;;;8.80;99.90;;;;;;5115712;28;20055;-62
2022/09/20 03:09:58;;;;;;;6.05;1.55;;;8.80;99.90;;;;;;5115799;28;20089;-62
2022/09/20 03:12:58;;;;;;;7.70;1.20;;;8.80;99.90;;;;;;5115337;28;20051;-62
2022/09/20 03:15:40;;;;;;;8.18;1.70;;;8.90;99.90;;;;;;5115693;28;20131;-62
2022/09/20 03:18:16;;;;;;;;;;;8.90;99.90;;;;;;5097849;28;20035;-62
2022/09/20 03:21:21;;;;;;;8.52;1.80;;;8.90;99.90;;;;;;5115266;28;19919;-61
2022/09/20 03:24:24;;;;;;;11.10;1.50;;;9.00;99.90;;;;;;5012574;28;20045;-62
2022/09/20 03:27:02;;;;;;;9.40;2.83;;;9.00;99.90;;;;;;5115322;28;20044;-61
2022/09/20 03:30:06;;;;;;;6.35;1.33;;;9.10;99.90;;;;;;5115319;28;20052;-62
2022/09/20 03:32:37;;;;;;;6.80;1.33;;;9.10;99.90;;;;;;5115177;28;20039;-62
2022/09/20 03:35:28;;;;;;;6.83;1.40;;;9.20;99.90;;;;;;5115226;28;20036;-62
2022/09/20 03:38:26;;;;;;;7.65;1.98;;;9.20;99.90;;;;;;5108904;28;20289;-62
2022/09/20 03:41:16;;;;;;;5.47;1.60;;;9.30;99.90;;;;;;5069085;28;20036;-62
2022/09/20 03:43:55;;;;;;;9.00;1.73;;;9.40;99.90;;;;;;5115026;28;20122;-62
2022/09/20 03:46:30;;;;;;;7.50;1.42;;;9.40;99.90;;;;;;5114579;28;20050;-62
2022/09/20 03:49:01;;;;;;;9.43;1.50;;;9.40;99.90;;;;;;5115147;28;21239;-62
2022/09/20 03:51:40;;;;;;;9.57;1.95;;;9.60;99.90;;;;;;5114211;28;20039;-62
2022/09/20 03:54:35;;;;;;;5.95;1.48;;;9.50;99.90;;;;;;5114526;28;20039;-62
2022/09/20 03:57:16;;;;;;;8.90;1.70;;;9.60;99.90;;;;;;5114867;28;20395;-62
2022/09/20 04:00:06;;;;;;;8.18;1.60;;;9.60;99.90;;;;;;5114667;28;20047;-61
2022/09/20 04:02:47;;;;;;;7.38;1.65;;;9.60;99.90;;;;;;5114467;28;20043;-62
2022/09/20 04:05:24;;;;;;;7.18;1.40;;;9.60;99.90;;;;;;5114815;28;20421;-62
2022/09/20 04:08:15;;;;;;;6.82;1.73;;;9.50;99.90;;;;;;5113620;28;20078;-62
2022/09/20 04:11:19;;;;;;;6.05;1.30;;;9.60;99.90;;;;;;5096297;28;20123;-62
2022/09/20 04:13:55;;;;;;;6.82;2.03;;;9.60;99.90;;;;;;5114391;28;20039;-62
2022/09/20 04:16:44;;;;;;;6.60;1.60;;;9.60;99.90;;;;;;5114353;28;20043;-61
2022/09/20 04:19:34;;;;;;;7.50;1.52;;;9.70;99.90;;;;;;5114153;28;20039;-62
2022/09/20 04:22:01;;;;;;;6.95;1.27;;;9.70;99.90;;;;;;5114080;28;20044;-61
2022/09/20 04:24:41;;;;;;;6.97;1.90;;;9.80;99.90;;;;;;5114075;28;20048;-62
2022/09/20 04:27:22;;;;;;;9.88;1.92;;;9.80;99.90;;;;;;5114154;28;20126;-62
2022/09/20 04:30:05;;;;;;;9.75;1.38;;;9.80;99.90;;;;;;5114062;28;20050;-62
2022/09/20 04:32:45;;;;;;;8.77;1.65;;;9.70;99.90;;;;;;5113853;28;20530;-62
2022/09/20 04:38:18;;;;;;;8.90;1.85;;;9.80;99.90;;;;;;5104728;28;20101;-63
2022/09/20 04:41:16;;;;;;;5.25;1.55;;;9.80;99.90;;;;;;5101430;28;20487;-62
2022/09/20 04:44:13;;;;;;;10.70;1.80;;;9.80;99.90;;;;;;5113836;28;20101;-63
2022/09/20 04:47:04;;;;;;;7.72;1.83;;;9.80;99.90;;;;;;5113735;28;20571;-62
2022/09/20 04:49:39;;;;;;;7.85;1.50;;;9.90;99.90;;;;;;5114015;28;20047;-62
2022/09/20 04:52:35;;;;;;;7.60;1.73;;;9.80;99.90;;;;;;5113363;28;20043;-60
2022/09/20 04:55:06;;;;;;;7.70;2.95;;;9.80;99.90;;;;;;5113434;28;20060;-62
2022/09/20 04:57:35;;;;;;;7.45;1.80;;;9.70;99.90;;;;;;5113464;28;20086;-62
2022/09/20 05:00:06;;;;;;;7.38;1.50;;;9.70;99.90;;;;;;5095293;28;20052;-62
2022/09/20 05:03:05;;;;;;;8.43;1.92;;;9.70;99.90;;;;;;5113619;28;20399;-62
2022/09/20 05:05:31;;;;;;;7.72;1.65;;;9.70;99.90;;;;;;5113150;28;20048;-62
2022/09/20 05:08:15;;;;;;;8.98;2.00;;;9.70;99.90;;;;;;5095181;28;20082;-61
2022/09/20 05:11:08;;;;;;;8.73;1.85;;;9.70;99.90;;;;;;5113323;28;20126;-61
2022/09/20 05:13:39;;;;;;;6.68;1.60;;;9.80;99.90;;;;;;5113305;28;20039;-62
2022/09/20 05:16:11;;;;;;;7.90;1.75;;;9.80;99.90;;;;;;5113057;28;20070;-62
2022/09/20 05:19:06;;;;;;;10.05;2.08;;;9.70;99.90;;;;;;5111121;28;20055;-62
2022/09/20 05:22:02;;;;;;;9.18;2.08;;;9.80;99.90;;;;;;5093480;28;20031;-62
2022/09/20 05:25:06;;;;;;;7.05;1.88;;;9.80;99.90;;;;;;5111885;28;20055;-62
2022/09/20 05:27:40;;;;;;;8.88;1.77;;;9.70;99.90;;;;;;5111624;28;20048;-61
2022/09/20 05:30:28;;;;;;;6.50;1.50;;;9.70;99.90;;;;;;5111273;28;20040;-62
2022/09/20 05:33:39;;;;;;;8.25;1.60;;;9.80;99.90;;;;;;5093107;28;20075;-62
2022/09/20 05:36:36;;;;;;;7.25;1.63;;;9.70;99.90;;;;;;5111009;28;20036;-62
2022/09/20 05:39:20;;;;;;;7.97;1.70;;;9.70;99.90;;;;;;5095535;28;20048;-62
2022/09/20 05:42:17;;;;;;;9.13;1.70;;;9.70;99.90;;;;;;5107570;28;20058;-62
2022/09/20 05:45:17;;;;;;;7.63;1.80;;;9.70;99.90;;;;;;5069115;28;20086;-62
2022/09/20 05:47:58;;;;;;;8.10;1.83;;;9.70;99.90;;;;;;5111113;28;20454;-62
2022/09/20 05:50:51;;;;;;;9.65;1.52;;;9.80;99.90;;;;;;5111084;28;20036;-61
2022/09/20 05:53:19;;;;;;;4.72;1.38;;;9.70;99.90;;;;;;5110753;28;20039;-61
2022/09/20 05:56:00;;;;;;;7.50;1.70;;;9.80;99.90;;;;;;5110579;28;20484;-61
2022/09/20 05:59:11;;;;;;;8.45;1.67;;;9.80;99.90;;;;;;5111067;28;20419;-62
2022/09/20 06:02:08;;;;;;;9.73;1.73;;;9.90;99.90;;;;;;5081710;28;20055;-62
2022/09/20 06:05:08;;;;;;;7.35;2.08;;;9.80;99.90;;;;;;5110253;28;20441;-62
2022/09/20 06:08:12;;;;;;;8.30;1.70;;;9.80;99.90;;;;;;5110008;28;20467;-61
2022/09/20 06:10:50;;;;;;;7.85;1.88;;;9.90;99.90;;;;;;5110757;28;20050;-61
2022/09/20 06:13:40;;;;;;;7.65;1.77;;;10.00;99.90;;;;;;5110827;28;20043;-61
2022/09/20 06:16:17;;;;;;;6.75;1.65;;;10.00;99.90;;;;;;5110674;28;20096;-62
2022/09/20 06:19:14;;;;;;;5.97;1.45;;;10.00;99.90;;;;;;5110727;28;20031;-62
2022/09/20 06:21:49;;;;;;;11.00;1.95;;;10.00;99.90;;;;;;5101053;28;20105;-61
2022/09/20 06:24:34;;;;;;;8.13;1.90;;;10.10;99.90;;;;;;5110587;28;20040;-61
2022/09/20 06:27:07;;;;;;;6.13;1.58;;;10.10;99.90;;;;;;5111009;28;20035;-61
2022/09/20 06:29:37;;;;;;;7.43;1.67;;;10.20;99.90;;;;;;5108625;28;20476;-62
2022/09/20 06:32:03;;;;;;;8.00;2.05;;;10.30;99.90;;;;;;5109123;28;20043;-62
2022/09/20 06:34:29;;;;;;;8.75;1.70;;;10.40;99.90;;;;;;5114906;28;20040;-61
2022/09/20 06:43:13;;;;;;;6.05;1.60;;;10.50;99.90;;;;;;5094188;28;20040;-62
2022/09/20 06:45:42;;;;;;;7.72;1.45;;;10.60;99.90;;;;;;5094191;28;20044;-61
2022/09/20 06:48:11;;;;;;;8.32;1.40;;;10.60;99.90;;;;;;5094120;28;20079;-62
2022/09/20 06:50:38;;;;;;;6.70;1.30;;;10.60;99.90;;;;;;5094248;28;20043;-61
2022/09/20 06:53:04;;;;;;;11.27;2.95;;;10.60;99.90;;;;;;5094175;28;20044;-61
2022/09/20 06:55:36;;;;;;;8.82;1.67;;;10.70;99.90;;;;;;5094327;28;20055;-62
2022/09/20 06:58:02;;;;;;;7.75;1.40;;;10.70;99.90;;;;;;5092530;28;20679;-62
2022/09/20 07:00:29;;;;;;;6.15;1.25;;;10.90;99.90;;;;;;5077429;28;20032;-62
2022/09/20 07:02:55;;;;;;;8.25;1.80;;;10.80;99.90;;;;;;5114445;28;20082;-62
2022/09/20 07:05:21;;;;;;;9.63;1.50;;;10.90;99.90;;;;;;5114120;28;20510;-62
2022/09/20 07:07:47;;;;;;;10.23;1.65;;;11.00;99.90;;;;;;5096112;28;20039;-63
2022/09/20 07:10:14;;;;;;;7.65;1.40;;;11.00;99.90;;;;;;5114150;28;20043;-61
2022/09/20 07:12:40;;;;;;;6.75;2.25;;;11.00;99.90;;;;;;5107983;28;20036;-61
2022/09/20 07:15:06;;;;;;;10.65;2.03;;;11.00;99.90;;;;;;5104383;28;20039;-62
2022/09/20 07:17:32;;;;;;;7.47;2.00;;;11.10;99.90;;;;;;5093490;28;20066;-62
2022/09/20 07:19:58;;;;;;;7.40;1.88;;;11.00;99.90;;;;;;5099289;28;20483;-62
2022/09/20 07:22:25;;;;;;;5.35;1.63;;;11.00;99.90;;;;;;5106735;28;20079;-62
2022/09/20 07:24:51;;;;;;;8.23;1.67;;;11.00;99.90;;;;;;5079965;28;20068;-62
2022/09/20 07:27:17;;;;;;;8.77;1.90;;;11.20;99.90;;;;;;5093405;28;20047;-61
2022/09/20 07:29:44;;;;;;;8.07;1.85;;;11.30;99.90;;;;;;5093359;28;20040;-61
2022/09/20 07:32:10;;;;;;;6.22;1.40;;;11.30;99.90;;;;;;5093278;28;20048;-61
2022/09/20 07:34:36;;;;;;;8.43;1.75;;;11.50;99.90;;;;;;5093315;28;20044;-61
2022/09/20 07:37:02;;;;;;;11.13;1.50;;;11.60;99.90;;;;;;5075186;28;20484;-62
2022/09/20 07:39:28;;;;;;;6.40;1.88;;;11.80;99.90;;;;;;5092821;28;20040;-61
2022/09/20 07:41:54;;;;;;;7.97;1.30;;;11.70;99.90;;;;;;5091930;28;20040;-61
2022/09/20 07:44:20;;;;;;;5.57;1.20;;;12.00;99.90;;;;;;5093009;28;20040;-62
2022/09/20 07:46:54;;;;;;;5.38;1.20;;;12.10;99.90;;;;;;5093060;28;20040;-62
2022/09/20 07:49:21;;;;;;;11.07;2.08;;;12.30;99.90;;;;;;5074803;28;20121;-61
2022/09/20 07:51:48;;;;;;;7.47;1.55;;;12.50;99.90;;;;;;5092650;28;20044;-62
2022/09/20 07:54:14;;;;;;;8.52;1.40;;;12.60;99.90;;;;;;5092588;28;20075;-62
2022/09/20 07:56:40;;;;;;;5.80;1.23;;;12.60;99.90;;;;;;5092834;28;20052;-62
2022/09/20 07:59:06;;;;;;;8.48;1.40;;;12.50;99.90;;;;;;5092687;28;20400;-61
2022/09/20 08:01:32;;;;;;;5.43;1.10;;;12.60;99.90;;;;;;5093121;28;20044;-60
2022/09/20 08:03:58;;;;;;;4.30;1.17;;;12.70;99.90;;;;;;5092785;28;20048;-61
2022/09/20 08:06:25;;;;;;;6.47;1.30;;;12.80;99.90;;;;;;5092659;28;20487;-62
2022/09/20 08:08:51;;;;;;;8.43;1.20;;;13.00;99.90;;;;;;5092702;28;20412;-61
2022/09/20 08:11:23;;;;;;;6.93;1.30;;;13.10;99.90;;;;;;5092440;28;20511;-61
2022/09/20 08:13:50;;;;;;;;;;;13.20;99.90;;;;;;5092925;28;20128;-61
2022/09/20 08:16:16;;;;;;;5.90;0.90;;;13.30;99.90;;;;;;5094726;28;19924;-62
2022/09/20 08:18:46;;;;;;;7.20;1.10;;;13.40;99.90;;;;;;5095530;28;20074;-61
2022/09/20 08:21:13;;;;;;;6.75;1.15;;;13.40;99.90;;;;;;5104817;28;20073;-61
2022/09/20 08:23:41;;;;;;;6.75;1.33;;;13.40;99.90;;;;;;5106934;28;20503;-61
2022/09/20 08:26:11;;;;;;;8.75;1.27;;;13.40;99.90;;;;;;5092239;28;20048;-60
2022/09/20 08:28:37;;;;;;;6.30;0.90;;;13.40;99.90;;;;;;5092468;28;20043;-61
2022/09/20 08:31:05;;;;;;;8.52;1.30;;;13.50;99.90;;;;;;5092313;28;20091;-62
2022/09/20 08:33:31;;;;;;;10.93;1.45;;;13.70;99.90;;;;;;5092002;28;20047;-62
2022/09/20 08:35:57;;;;;;;8.68;1.00;;;14.00;99.90;;;;;;5092035;28;20158;-61
2022/09/20 08:38:26;;;;;;;4.93;0.85;;;14.00;99.90;;;;;;5091629;28;20036;-61
2022/09/20 08:41:18;;;;;;;5.60;1.13;;;14.00;99.90;;;;;;5062128;28;20074;-61
2022/09/20 08:43:56;;;;;;;8.13;1.77;;;14.00;99.90;;;;;;5096084;28;20153;-61
2022/09/20 08:46:27;;;;;;;5.82;1.05;;;14.00;99.90;;;;;;5096247;28;20376;-62
2022/09/20 08:48:57;;;;;;;5.68;0.85;;;14.10;99.90;;;;;;5097836;28;20049;-64
2022/09/20 08:51:29;;;;;;;5.95;1.35;;;14.20;99.90;;;;;;5093805;28;20063;-63
2022/09/20 08:53:56;;;;;;;6.75;1.13;;;14.30;99.90;;;;;;5095518;28;20085;-62
2022/09/20 08:56:30;;;;;;;8.45;1.23;;;14.30;99.90;;;;;;5093951;28;20040;-64
2022/09/20 08:58:58;;;;;;;4.53;0.90;;;14.30;99.90;;;;;;5097790;28;20081;-63
2022/09/20 09:01:28;;;;;;;5.40;0.90;;;14.30;99.90;;;;;;5078809;28;20066;-63
2022/09/20 09:04:09;;;;;;;8.55;1.50;;;14.40;99.90;;;;;;5094370;28;20093;-61
2022/09/20 09:06:35;;;;;;;8.52;1.20;;;14.40;99.90;;;;;;5098749;28;20476;-61
2022/09/20 09:09:01;;;;;;;4.43;0.90;;;14.30;99.90;;;;;;5076868;28;20097;-60
2022/09/20 09:11:27;;;;;;;5.85;1.02;;;14.40;99.90;;;;;;5094376;28;20047;-61
2022/09/20 09:14:46;;;;;;;5.30;0.85;;;14.40;99.90;;;;;;5096870;28;20039;-60
2022/09/20 09:16:52;;;;;;;4.65;0.75;;;14.60;99.90;;;;;;5091541;28;20087;-61
2022/09/20 09:19:42;;;;;;;5.72;1.10;;;14.70;99.90;;;;;;5095858;28;20400;-61
2022/09/20 09:22:08;;;;;;;4.00;1.00;;;14.70;99.90;;;;;;5093741;28;20111;-62
2022/09/20 09:24:34;;;;;;;6.05;1.60;;;14.80;99.90;;;;;;5095766;28;20082;-62
2022/09/20 09:27:13;;;;;;;6.82;1.25;;;14.80;99.90;;;;;;5093219;28;20065;-62
2022/09/20 09:29:56;;;;;;;5.57;0.90;;;14.80;99.90;;;;;;5096830;28;20146;-61
2022/09/20 09:32:28;;;;;;;5.50;1.00;;;14.90;99.90;;;;;;5093073;28;20535;-62
2022/09/20 09:34:54;;;;;;;5.07;0.90;;;14.90;99.90;;;;;;5092854;28;20772;-63
2022/09/20 09:37:27;;;;;;;7.57;2.00;;;15.00;99.90;;;;;;5094296;28;20484;-63
2022/09/20 09:40:16;;;;;;;3.90;0.88;;;15.00;99.90;;;;;;5095454;28;20040;-62
2022/09/20 09:43:00;;;;;;;4.57;0.90;;;15.00;99.90;;;;;;5075401;28;20051;-62
2022/09/20 09:45:37;;;;;;;5.05;0.80;;;15.10;99.90;;;;;;5095358;28;20041;-62
2022/09/20 09:48:19;;;;;;;7.53;1.00;;;15.20;99.90;;;;;;5093104;28;20080;-61
2022/09/20 09:50:46;;;;;;;6.45;0.95;;;15.30;99.90;;;;;;5092856;28;20057;-62
2022/09/20 09:53:21;;;;;;;4.97;0.82;;;15.40;99.90;;;;;;5095186;28;20094;-62
2022/09/20 09:56:06;;;;;;;6.25;1.00;;;15.40;99.90;;;;;;5096141;28;20059;-61
2022/09/20 09:58:53;;;;;;;4.93;0.70;;;15.40;99.90;;;;;;5095660;28;20043;-62
2022/09/20 10:01:52;;;;;;;10.40;1.38;;;15.50;99.90;;;;;;5094902;28;20028;-62
2022/09/20 10:04:32;;;;;;;7.32;0.90;;;15.40;99.90;;;;;;5075382;28;20121;-62
2022/09/20 10:07:13;;;;;;;8.23;1.02;;;15.30;99.90;;;;;;5092588;28;20047;-62
2022/09/20 10:09:47;;;;;;;8.07;1.17;;;15.30;99.90;;;;;;5094379;28;20039;-62
2022/09/20 10:12:19;;;;;;;5.45;1.60;;;15.30;99.90;;;;;;5069170;28;20043;-64
2022/09/20 10:15:13;;;;;;;5.63;1.40;;;15.50;99.90;;;;;;5074334;28;20040;-61
2022/09/20 10:18:16;;;;;;;4.65;1.00;;;15.50;99.90;;;;;;5094387;28;20037;-60
2022/09/20 10:21:11;;;;;;;9.85;1.67;;;15.50;99.90;;;;;;5096752;28;20491;-61
2022/09/20 10:23:46;;;;;;;7.20;1.08;;;15.50;99.90;;;;;;5044223;28;20078;-61
2022/09/20 10:26:22;;;;;;;7.88;1.20;;;15.60;99.90;;;;;;5093013;28;20139;-60
2022/09/20 10:29:19;;;;;;;6.18;0.93;;;15.60;99.90;;;;;;5092223;28;20043;-61
2022/09/20 10:31:50;;;;;;;4.70;0.95;;;15.80;99.90;;;;;;5094836;28;20051;-62
2022/09/20 10:34:19;;;;;;;4.72;1.30;;;16.00;99.90;;;;;;5093073;28;20495;-62
2022/09/20 10:36:59;;;;;;;7.45;1.00;;;16.10;99.90;;;;;;5095116;28;20118;-61
2022/09/20 10:39:31;;;;;;;3.83;0.73;;;16.00;99.90;;;;;;5091313;28;20626;-61
2022/09/20 10:45:18;;;;;;;6.18;1.20;;;15.90;99.90;;;;;;5094831;28;19924;-62
2022/09/20 10:48:21;;;;;;;9.18;1.10;;;15.70;99.90;;;;;;5091788;28;20046;-61
2022/09/20 10:50:56;;;;;;;8.90;1.38;;;15.70;99.90;;;;;;5091125;28;20063;-62
2022/09/20 10:53:28;;;;;;;9.50;1.17;;;15.60;99.90;;;;;;5090679;28;20048;-62
2022/09/20 10:56:15;;;;;;;4.97;0.90;;;15.70;99.90;;;;;;5093102;28;20470;-61
2022/09/20 10:58:48;;;;;;;7.47;0.90;;;15.80;99.90;;;;;;5090187;28;20040;-61
2022/09/20 11:01:30;;;;;;;6.70;0.98;;;15.70;99.90;;;;;;5092626;28;20035;-63
2022/09/20 11:04:37;;;;;;;6.30;1.20;;;15.80;99.90;;;;;;5092084;28;20361;-62
2022/09/20 11:07:08;;;;;;;5.65;1.10;;;15.90;99.90;;;;;;5067428;28;21063;-62
2022/09/20 11:09:38;;;;;;;9.50;1.60;;;16.20;99.90;;;;;;5095675;28;20036;-63
2022/09/20 11:12:22;;;;;;;5.20;0.82;;;16.40;99.90;;;;;;5091975;28;20120;-62
2022/09/20 11:15:03;;;;;;;6.30;1.23;;;16.20;99.90;;;;;;5092236;28;20585;-62
2022/09/20 11:17:35;;;;;;;8.10;1.20;;;15.90;99.90;;;;;;5094066;28;20074;-61
2022/09/20 11:20:10;;;;;;;6.22;1.00;;;16.00;99.90;;;;;;5096281;28;20032;-60
2022/09/20 11:23:02;;;;;;;5.45;0.77;;;16.00;99.90;;;;;;5096372;28;20032;-61
2022/09/20 11:25:37;;;;;;;5.82;1.23;;;16.10;99.90;;;;;;5087263;28;20123;-60
2022/09/20 11:28:20;;;;;;;8.63;1.17;;;15.90;99.90;;;;;;5096151;28;20027;-60
2022/09/20 11:31:11;;;;;;;6.10;1.23;;;15.90;99.90;;;;;;5095132;28;20043;-60
2022/09/20 11:33:51;;;;;;;4.97;1.02;;;16.00;99.90;;;;;;5097019;28;20058;-60
2022/09/20 11:36:22;;;;;;;5.75;1.13;;;16.20;99.90;;;;;;5078683;28;20044;-60
2022/09/20 11:39:13;;;;;;;5.80;0.90;;;16.30;99.90;;;;;;5094882;28;20042;-60
2022/09/20 11:41:40;;;;;;;6.00;1.55;;;16.30;99.90;;;;;;5095715;28;20430;-60
2022/09/20 11:44:15;;;;;;;4.43;1.40;;;16.40;99.90;;;;;;5096962;28;20036;-60
2022/09/20 11:46:57;;;;;;;3.58;0.70;;;16.60;99.90;;;;;;5094415;28;20035;-60
2022/09/20 11:49:27;;;;;;;4.82;0.88;;;16.70;99.90;;;;;;5094243;28;20126;-59
2022/09/20 11:52:09;;;;;;;7.05;0.90;;;16.80;99.90;;;;;;5094670;28;20458;-60
2022/09/20 11:54:59;;;;;;;4.80;0.90;;;17.10;99.90;;;;;;5096688;28;20067;-60
2022/09/20 11:57:27;;;;;;;3.67;0.70;;;17.20;99.90;;;;;;5094439;28;20308;-60
2022/09/20 11:59:56;;;;;;;7.00;1.08;;;17.10;99.90;;;;;;5094777;28;20747;-60
2022/09/20 12:02:45;;;;;;;5.07;0.82;;;16.70;99.90;;;;;;5095239;28;20036;-60
2022/09/20 12:05:28;;;;;;;4.82;0.80;;;16.40;99.90;;;;;;5078312;28;20048;-60
2022/09/20 12:07:57;;;;;;;6.22;0.80;;;16.40;99.90;;;;;;5096639;28;20036;-60
2022/09/20 12:10:26;;;;;;;3.90;0.80;;;16.60;99.90;;;;;;5095931;28;20038;-61
2022/09/20 12:13:00;;;;;;;7.72;1.80;;;16.60;99.90;;;;;;5096790;28;20039;-61
2022/09/20 12:15:30;;;;;;;8.13;0.80;;;16.90;99.90;;;;;;5094400;28;20047;-60
2022/09/20 12:17:56;;;;;;;6.88;0.80;;;16.90;99.90;;;;;;5093966;28;20040;-61
2022/09/20 12:20:33;;;;;;;5.35;0.73;;;16.80;99.90;;;;;;5094707;28;20408;-60
2022/09/20 12:23:40;;;;;;;4.18;0.60;;;16.80;99.90;;;;;;5095346;28;20044;-61
2022/09/20 12:26:12;;;;;;;8.75;1.48;;;16.90;99.90;;;;;;5105758;28;20131;-60
2022/09/20 12:28:44;;;;;;;2.50;0.73;;;16.70;99.90;;;;;;5093819;28;20050;-61
2022/09/20 12:34:08;;;;;;;4.65;0.85;;;16.60;99.90;;;;;;5112296;28;20061;-60
2022/09/20 12:36:41;;;;;;;4.95;0.95;;;16.80;99.90;;;;;;5112823;28;20052;-60
2022/09/20 12:39:09;;;;;;;3.45;0.68;;;16.80;99.90;;;;;;5077822;28;20495;-60
2022/09/20 12:42:03;;;;;;;5.05;0.60;;;16.50;99.90;;;;;;5091763;28;20039;-60
2022/09/20 12:44:48;;;;;;;3.95;0.65;;;16.40;99.90;;;;;;5091855;28;20044;-60
2022/09/20 12:47:24;;;;;;;3.83;0.75;;;16.60;99.90;;;;;;5091893;28;20051;-61
2022/09/20 12:52:59;;;;;;;6.15;1.10;;;16.70;99.90;;;;;;5092184;28;20073;-61
2022/09/20 12:55:31;;;;;;;4.75;0.95;;;16.70;99.90;;;;;;5091945;28;20118;-61
2022/09/20 12:58:02;;;;;;;7.95;1.00;;;16.60;99.90;;;;;;5093374;28;20052;-61
2022/09/20 13:00:49;;;;;;;7.22;1.20;;;16.60;99.90;;;;;;5093193;28;20040;-60
2022/09/20 13:03:20;;;;;;;5.97;1.00;;;16.50;99.90;;;;;;5093237;28;20050;-61
2022/09/20 13:05:51;;;;;;;7.45;1.08;;;16.70;99.90;;;;;;5093105;28;20047;-61
2022/09/20 13:08:22;;;;;;;6.80;1.00;;;16.40;99.90;;;;;;5092672;28;20083;-61
2022/09/20 13:10:59;;;;;;;7.68;0.90;;;16.30;99.90;;;;;;5092903;28;20046;-62
2022/09/20 13:14:07;;;;;;;8.25;1.02;;;16.10;99.90;;;;;;5075046;28;20043;-62
2022/09/20 13:16:40;;;;;;;6.75;0.95;;;16.00;99.90;;;;;;5092948;28;20043;-61
2022/09/20 13:19:09;;;;;;;6.53;0.93;;;16.00;99.90;;;;;;5093141;28;20404;-61
2022/09/20 13:21:41;;;;;;;6.85;1.00;;;15.70;99.90;;;;;;5092542;28;20145;-61
2022/09/20 13:24:14;;;;;;;8.50;1.30;;;15.80;99.90;;;;;;5092732;28;20101;-61
2022/09/20 13:26:44;;;;;;;8.55;1.52;;;15.70;99.90;;;;;;5092787;28;20074;-61
2022/09/20 13:29:29;;;;;;;6.78;1.30;;;15.60;99.90;;;;;;5092587;28;20040;-61
2022/09/20 13:31:55;;;;;;;8.07;1.10;;;15.60;99.90;;;;;;5074553;28;20040;-61
2022/09/20 13:34:24;;;;;;;4.68;0.90;;;15.60;99.90;;;;;;5092903;28;20047;-61
2022/09/20 13:36:56;;;;;;;5.10;1.40;;;15.80;99.90;;;;;;5092416;28;20036;-61
2022/09/20 13:39:26;;;;;;;9.48;2.10;;;15.90;99.90;;;;;;5090658;28;20075;-61
2022/09/20 13:41:52;;;;;;;5.10;0.98;;;16.10;99.90;;;;;;5092298;28;20059;-61
2022/09/20 13:44:18;;;;;;;5.05;1.13;;;16.10;99.90;;;;;;5092870;28;20036;-61
2022/09/20 13:46:44;;;;;;;6.32;1.55;;;16.10;99.90;;;;;;5092635;28;20177;-60
2022/09/20 13:49:20;;;;;;;4.07;0.80;;;16.20;99.90;;;;;;5074030;28;20131;-60
2022/09/20 13:51:47;;;;;;;5.88;0.90;;;16.10;99.90;;;;;;5092382;28;20044;-61
2022/09/20 13:54:39;;;;;;;6.05;0.80;;;16.00;99.90;;;;;;5092089;28;20083;-60
2022/09/20 13:57:17;;;;;;;7.55;0.93;;;15.90;99.90;;;;;;5087320;28;20044;-61
2022/09/20 13:59:45;;;;;;;5.43;0.90;;;16.10;99.90;;;;;;5092306;28;20426;-61
2022/09/20 14:02:25;;;;;;;9.35;1.00;;;16.10;99.90;;;;;;5073883;28;20122;-61
2022/09/20 14:04:54;;;;;;;4.88;1.02;;;15.90;99.90;;;;;;5092106;28;20076;-60